Time;durP1;ratioP1;P1;durP2;ratioP2;P2;SDS_P1;SDS_P2;PMS_P1;PMS_P2;Temp;Humidity;BMP_temperature;BMP_pressure;BME280_temperature;BME280_humidity;BME280_pressure;Samples;Min_cycle;Max_cycle;Signal;HPM_P1;HPM_P2
2022/12/13 00:01:47;;;;;;;58.42;22.55;;;;;;;;;;5046961;28;20459;-71
2022/12/13 00:04:14;;;;;;;65.82;24.05;;;;;;;;;;5058309;28;20048;-71
2022/12/13 00:06:42;;;;;;;71.15;25.27;;;;;;;;;;5041737;28;20059;-71
2022/12/13 00:09:12;;;;;;;59.35;23.60;;;;;;;;;;5039003;28;20048;-71
2022/12/13 00:11:39;;;;;;;54.72;21.95;;;;;;;;;;5048628;28;20047;-71
2022/12/13 00:14:06;;;;;;;55.80;21.00;;;;;;;;;;5066639;28;20108;-70
2022/12/13 00:16:33;;;;;;;57.33;23.10;;;;;;;;;;5066458;28;20056;-71
2022/12/13 00:19:01;;;;;;;59.00;24.98;;;;;;;;;;5045891;28;20053;-71
2022/12/13 00:21:29;;;;;;;66.45;24.92;;;;;;;;;;5049017;28;20067;-71
2022/12/13 00:23:57;;;;;;;53.38;22.95;;;;;;;;;;5068337;28;20494;-70
2022/12/13 00:26:27;;;;;;;51.72;21.50;;;;;;;;;;5049829;28;20059;-71
2022/12/13 00:28:54;;;;;;;48.60;21.15;;;;;;;;;;5053167;28;20048;-71
2022/12/13 00:31:22;;;;;;;64.28;24.90;;;;;;;;;;5067914;28;20443;-71
2022/12/13 00:33:49;;;;;;;55.08;22.38;;;;;;;;;;5044345;28;20357;-71
2022/12/13 00:36:17;;;;;;;52.70;21.63;;;;;;;;;;5050648;28;20506;-71
2022/12/13 00:38:45;;;;;;;51.40;21.23;;;;;;;;;;5067966;28;20595;-71
2022/12/13 00:41:13;;;;;;;50.78;20.58;;;;;;;;;;5068565;28;20051;-71
2022/12/13 00:43:42;;;;;;;66.32;23.58;;;;;;;;;;5042674;28;20388;-71
2022/12/13 00:46:12;;;;;;;55.55;23.42;;;;;;;;;;5065197;28;20403;-71
2022/12/13 00:48:39;;;;;;;57.83;23.85;;;;;;;;;;5052447;28;20123;-71
2022/12/13 00:51:07;;;;;;;61.55;24.25;;;;;;;;;;5051586;28;20499;-71
2022/12/13 00:53:35;;;;;;;61.35;24.60;;;;;;;;;;5070860;28;20044;-71
2022/12/13 00:56:02;;;;;;;52.85;21.48;;;;;;;;;;5067660;28;20075;-71
2022/12/13 00:58:29;;;;;;;43.78;19.15;;;;;;;;;;5067271;28;20059;-71
2022/12/13 01:01:04;;;;;;;47.13;20.33;;;;;;;;;;5046154;28;21105;-71
2022/12/13 01:03:31;;;;;;;56.50;21.15;;;;;;;;;;5051588;28;20724;-71
2022/12/13 01:05:59;;;;;;;48.50;18.88;;;;;;;;;;5065728;28;20403;-71
2022/12/13 01:08:27;;;;;;;45.03;19.52;;;;;;;;;;5061539;28;20508;-71
2022/12/13 01:10:55;;;;;;;54.15;20.77;;;;;;;;;;5062715;28;20057;-71
2022/12/13 01:13:22;;;;;;;51.55;20.10;;;;;;;;;;5049353;28;20056;-71
2022/12/13 01:15:49;;;;;;;49.25;20.40;;;;;;;;;;5064050;28;20167;-71
2022/12/13 01:18:18;;;;;;;45.92;19.67;;;;;;;;;;5047874;28;20045;-71
2022/12/13 01:20:57;;;;;;;44.05;19.77;;;;;;;;;;5067786;28;20052;-71
2022/12/13 01:23:25;;;;;;;43.97;19.08;;;;;;;;;;5068294;28;20161;-71
2022/12/13 01:25:52;;;;;;;52.45;20.85;;;;;;;;;;5049972;28;20055;-71
2022/12/13 01:28:19;;;;;;;49.15;20.67;;;;;;;;;;5061640;28;20048;-71
2022/12/13 01:30:54;;;;;;;49.03;19.83;;;;;;;;;;5067771;28;20491;-71
2022/12/13 01:33:23;;;;;;;49.40;20.42;;;;;;;;;;5062684;28;20525;-71
2022/12/13 01:35:50;;;;;;;47.15;19.60;;;;;;;;;;5060848;28;20170;-71
2022/12/13 01:38:17;;;;;;;57.45;22.70;;;;;;;;;;5051718;28;20059;-70
2022/12/13 01:40:45;;;;;;;47.75;19.98;;;;;;;;;;5047827;28;20535;-71
2022/12/13 01:43:13;;;;;;;54.15;20.10;;;;;;;;;;5046956;28;20056;-71
2022/12/13 01:45:40;;;;;;;46.25;19.13;;;;;;;;;;5059233;28;20044;-71
2022/12/13 01:48:09;;;;;;;47.63;19.60;;;;;;;;;;5062091;28;20072;-70
2022/12/13 01:50:39;;;;;;;52.63;21.33;;;;;;;;;;5055434;28;20403;-71
2022/12/13 01:53:07;;;;;;;57.90;22.77;;;;;;;;;;5065901;28;20415;-71
2022/12/13 01:55:37;;;;;;;50.15;21.00;;;;;;;;;;5065491;28;20052;-71
2022/12/13 01:58:05;;;;;;;43.65;19.27;;;;;;;;;;5057454;28;20511;-71
2022/12/13 02:00:34;;;;;;;55.40;21.35;;;;;;;;;;5047318;28;20723;-71
2022/12/13 02:03:02;;;;;;;47.50;19.13;;;;;;;;;;5040890;28;20055;-71
2022/12/13 02:05:31;;;;;;;52.30;20.55;;;;;;;;;;5048719;28;20060;-70
2022/12/13 02:08:00;;;;;;;54.25;20.17;;;;;;;;;;5072308;28;20093;-71
2022/12/13 02:10:28;;;;;;;51.13;21.70;;;;;;;;;;5059519;28;20059;-71
2022/12/13 02:12:55;;;;;;;51.75;21.02;;;;;;;;;;5051925;28;20552;-70
2022/12/13 02:15:23;;;;;;;52.50;21.85;;;;;;;;;;5070036;28;20048;-70
2022/12/13 02:17:58;;;;;;;47.25;19.88;;;;;;;;;;5056705;28;20682;-70
2022/12/13 02:20:47;;;;;;;53.63;21.30;;;;;;;;;;5073032;28;20094;-71
2022/12/13 02:23:47;;;;;;;48.25;20.58;;;;;;;;;;5057557;28;20059;-71
2022/12/13 02:26:28;;;;;;;53.83;21.20;;;;;;;;;;4994042;28;20587;-70
2022/12/13 02:29:07;;;;;;;56.53;24.20;;;;;;;;;;5001160;28;20704;-70
2022/12/13 02:31:38;;;;;;;52.67;21.65;;;;;;;;;;5025834;28;20058;-70
2022/12/13 02:34:07;;;;;;;45.60;19.58;;;;;;;;;;5065906;28;20056;-70
2022/12/13 02:36:38;;;;;;;54.47;20.08;;;;;;;;;;5061292;28;20058;-70
2022/12/13 02:39:09;;;;;;;51.47;20.67;;;;;;;;;;5063977;28;20056;-71
2022/12/13 02:41:39;;;;;;;46.85;19.63;;;;;;;;;;5067533;28;20060;-70
2022/12/13 02:44:08;;;;;;;50.65;20.88;;;;;;;;;;5047345;28;20044;-71
2022/12/13 02:46:39;;;;;;;44.00;19.30;;;;;;;;;;5038570;28;20091;-70
2022/12/13 02:49:07;;;;;;;45.58;19.38;;;;;;;;;;5047326;28;20531;-70
2022/12/13 02:51:35;;;;;;;46.58;19.67;;;;;;;;;;5037749;28;20049;-70
2022/12/13 02:54:03;;;;;;;43.00;18.95;;;;;;;;;;5045995;28;20060;-70
2022/12/13 02:56:31;;;;;;;45.03;18.48;;;;;;;;;;5045912;28;20060;-71
2022/12/13 02:58:59;;;;;;;46.15;18.98;;;;;;;;;;5038883;28;20134;-70
2022/12/13 03:01:31;;;;;;;45.88;19.65;;;;;;;;;;5039163;28;20057;-70
2022/12/13 03:04:07;;;;;;;40.97;18.30;;;;;;;;;;5042095;28;20481;-70
2022/12/13 03:06:39;;;;;;;45.72;19.65;;;;;;;;;;5049064;28;20126;-70
2022/12/13 03:09:15;;;;;;;45.97;19.73;;;;;;;;;;5045274;28;20407;-70
2022/12/13 03:14:36;;;;;;;;;;;;;;;;;;5043515;28;20071;-71
2022/12/13 03:17:05;;;;;;;56.65;20.77;;;;;;;;;;5044623;28;20506;-70
2022/12/13 03:19:33;;;;;;;52.40;21.15;;;;;;;;;;5045879;28;20053;-70
2022/12/13 03:22:01;;;;;;;46.47;19.98;;;;;;;;;;5036818;28;20053;-70
2022/12/13 03:24:28;;;;;;;51.83;21.48;;;;;;;;;;5052100;28;20045;-70
2022/12/13 03:26:55;;;;;;;46.88;20.38;;;;;;;;;;5032577;28;20524;-70
2022/12/13 03:29:22;;;;;;;54.20;21.33;;;;;;;;;;5046666;28;20045;-70
2022/12/13 03:31:50;;;;;;;46.90;20.50;;;;;;;;;;5045071;28;20500;-70
2022/12/13 03:34:17;;;;;;;49.65;21.73;;;;;;;;;;5045517;28;20041;-70
2022/12/13 03:36:45;;;;;;;48.08;19.83;;;;;;;;;;5051722;28;20044;-70
2022/12/13 03:39:13;;;;;;;48.08;19.60;;;;;;;;;;5042354;28;20048;-70
2022/12/13 03:41:40;;;;;;;50.05;20.35;;;;;;;;;;5043027;28;20049;-70
2022/12/13 03:44:08;;;;;;;47.78;19.38;;;;;;;;;;5053706;28;20045;-70
2022/12/13 03:46:36;;;;;;;51.10;19.42;;;;;;;;;;5049532;28;20052;-70
2022/12/13 03:49:03;;;;;;;43.50;19.10;;;;;;;;;;5063721;28;20079;-69
2022/12/13 03:51:30;;;;;;;49.25;20.33;;;;;;;;;;5073796;28;20045;-70
2022/12/13 03:54:02;;;;;;;53.28;21.50;;;;;;;;;;5043779;28;20059;-70
2022/12/13 03:56:29;;;;;;;56.28;22.27;;;;;;;;;;5072816;28;20052;-70
2022/12/13 03:58:56;;;;;;;51.78;22.33;;;;;;;;;;5065776;28;20064;-70
2022/12/13 04:01:23;;;;;;;52.40;20.23;;;;;;;;;;5046691;28;20057;-70
2022/12/13 04:03:51;;;;;;;48.67;20.38;;;;;;;;;;5071735;28;20060;-70
2022/12/13 04:06:18;;;;;;;55.63;21.92;;;;;;;;;;5057596;28;20044;-70
2022/12/13 04:08:45;;;;;;;53.78;22.85;;;;;;;;;;5064862;28;20102;-70
2022/12/13 04:13:59;;;;;;;46.22;19.67;;;;;;;;;;5068967;28;20052;-70
2022/12/13 04:16:26;;;;;;;44.70;19.50;;;;;;;;;;5069299;28;20159;-70
2022/12/13 04:18:53;;;;;;;41.95;18.35;;;;;;;;;;5070594;28;20079;-70
2022/12/13 04:21:20;;;;;;;50.95;21.45;;;;;;;;;;5069097;28;20745;-69
2022/12/13 04:23:48;;;;;;;52.17;21.35;;;;;;;;;;5073684;28;20045;-70
2022/12/13 04:26:16;;;;;;;44.38;19.08;;;;;;;;;;5075096;28;20048;-70
2022/12/13 04:28:43;;;;;;;55.50;20.85;;;;;;;;;;5067670;28;20061;-70
2022/12/13 04:31:11;;;;;;;53.50;23.98;;;;;;;;;;5071153;28;20601;-70
2022/12/13 04:33:38;;;;;;;50.00;22.10;;;;;;;;;;5069176;28;20067;-69
2022/12/13 04:36:05;;;;;;;45.47;19.75;;;;;;;;;;5077069;28;20044;-70
2022/12/13 04:38:33;;;;;;;46.45;20.92;;;;;;;;;;5067109;28;20055;-70
2022/12/13 04:41:13;;;;;;;49.58;21.15;;;;;;;;;;5062244;28;20044;-70
2022/12/13 04:43:42;;;;;;;48.10;20.45;;;;;;;;;;5062334;28;20071;-70
2022/12/13 04:46:09;;;;;;;50.92;20.23;;;;;;;;;;5068449;28;20148;-70
2022/12/13 04:48:37;;;;;;;48.83;21.17;;;;;;;;;;5055483;28;20746;-70
2022/12/13 04:51:04;;;;;;;47.50;20.23;;;;;;;;;;5062428;28;20055;-69
2022/12/13 04:53:31;;;;;;;51.22;20.98;;;;;;;;;;5065681;28;20055;-69
2022/12/13 04:55:59;;;;;;;56.78;21.38;;;;;;;;;;5067702;28;20123;-70
2022/12/13 04:58:26;;;;;;;46.10;20.38;;;;;;;;;;5066833;28;20076;-70
2022/12/13 05:00:55;;;;;;;47.03;19.73;;;;;;;;;;5045784;28;20061;-70
2022/12/13 05:03:22;;;;;;;44.97;19.00;;;;;;;;;;5049068;28;20070;-70
2022/12/13 05:05:49;;;;;;;49.50;20.70;;;;;;;;;;5070268;28;20053;-70
2022/12/13 05:08:16;;;;;;;42.75;18.70;;;;;;;;;;5067377;28;20055;-69
2022/12/13 05:10:44;;;;;;;41.78;18.77;;;;;;;;;;5066748;28;20535;-70
2022/12/13 05:13:11;;;;;;;38.35;17.42;;;;;;;;;;5071233;28;20048;-70
2022/12/13 05:15:38;;;;;;;45.55;18.58;;;;;;;;;;5070457;28;20803;-70
2022/12/13 05:18:07;;;;;;;42.88;17.98;;;;;;;;;;5053508;28;20055;-70
2022/12/13 05:20:35;;;;;;;49.65;19.40;;;;;;;;;;5064521;28;21397;-70
2022/12/13 05:23:02;;;;;;;48.45;22.92;;;;;;;;;;5067871;28;20459;-70
2022/12/13 05:25:29;;;;;;;59.22;24.75;;;;;;;;;;5069184;28;20052;-70
2022/12/13 05:27:57;;;;;;;61.40;26.05;;;;;;;;;;5066326;28;20127;-70
2022/12/13 05:30:24;;;;;;;51.25;24.63;;;;;;;;;;5064002;28;20106;-70
2022/12/13 05:32:51;;;;;;;50.00;24.42;;;;;;;;;;5050626;28;20056;-69
2022/12/13 05:35:20;;;;;;;52.97;24.52;;;;;;;;;;5066650;28;20039;-70
2022/12/13 05:37:48;;;;;;;56.53;26.20;;;;;;;;;;5068684;28;20099;-70
2022/12/13 05:40:15;;;;;;;51.55;25.02;;;;;;;;;;5068915;28;20052;-70
2022/12/13 05:42:42;;;;;;;51.63;23.35;;;;;;;;;;5064418;28;20538;-70
2022/12/13 05:45:10;;;;;;;50.25;22.75;;;;;;;;;;5069555;28;20045;-69
2022/12/13 05:47:37;;;;;;;47.58;22.35;;;;;;;;;;5068892;28;20060;-70
2022/12/13 05:50:05;;;;;;;58.08;25.00;;;;;;;;;;5068441;28;20768;-70
2022/12/13 05:52:34;;;;;;;47.33;23.73;;;;;;;;;;5066463;28;20064;-70
2022/12/13 05:55:01;;;;;;;48.45;22.55;;;;;;;;;;5045955;28;20045;-69
2022/12/13 05:57:28;;;;;;;49.75;22.42;;;;;;;;;;5071329;28;20480;-70
2022/12/13 05:59:55;;;;;;;55.13;24.25;;;;;;;;;;5071400;28;20365;-70
2022/12/13 06:02:23;;;;;;;46.80;22.35;;;;;;;;;;5069450;28;20170;-69
2022/12/13 06:04:50;;;;;;;69.13;24.02;;;;;;;;;;5072693;28;20534;-69
2022/12/13 06:07:17;;;;;;;55.95;24.83;;;;;;;;;;5063798;28;20044;-69
2022/12/13 06:09:46;;;;;;;60.25;24.55;;;;;;;;;;5068154;28;20410;-69
2022/12/13 06:12:14;;;;;;;53.55;24.73;;;;;;;;;;5046580;28;20597;-70
2022/12/13 06:14:42;;;;;;;56.88;25.13;;;;;;;;;;5047099;28;20049;-70
2022/12/13 06:17:09;;;;;;;48.28;23.98;;;;;;;;;;5063896;28;20045;-70
2022/12/13 06:19:36;;;;;;;49.00;24.02;;;;;;;;;;5065314;28;20044;-70
2022/12/13 06:22:03;;;;;;;56.25;25.75;;;;;;;;;;5049811;28;20056;-68
2022/12/13 06:24:30;;;;;;;49.75;24.30;;;;;;;;;;5068174;28;20056;-67
2022/12/13 06:26:59;;;;;;;55.65;23.75;;;;;;;;;;5063893;28;20036;-69
2022/12/13 06:29:27;;;;;;;53.25;24.60;;;;;;;;;;5064369;28;20075;-68
2022/12/13 06:31:55;;;;;;;49.53;22.73;;;;;;;;;;5065469;28;20060;-68
2022/12/13 06:34:22;;;;;;;54.95;23.75;;;;;;;;;;5066314;28;20052;-71
2022/12/13 06:36:49;;;;;;;52.15;24.80;;;;;;;;;;5063353;28;20139;-70
2022/12/13 06:39:16;;;;;;;52.25;24.60;;;;;;;;;;5050770;28;20052;-69
2022/12/13 06:41:44;;;;;;;58.35;25.15;;;;;;;;;;5061779;28;20424;-68
2022/12/13 06:44:13;;;;;;;54.22;23.75;;;;;;;;;;5066099;28;20348;-69
2022/12/13 06:46:40;;;;;;;49.05;24.08;;;;;;;;;;5064251;28;20537;-68
2022/12/13 06:49:07;;;;;;;53.15;25.17;;;;;;;;;;5069867;28;20055;-73
2022/12/13 06:51:35;;;;;;;52.85;24.42;;;;;;;;;;5046514;28;20064;-73
2022/12/13 06:54:02;;;;;;;55.42;26.27;;;;;;;;;;5047651;28;20060;-73
2022/12/13 06:56:30;;;;;;;52.70;25.50;;;;;;;;;;5047609;28;20052;-73
2022/12/13 06:58:57;;;;;;;59.58;25.30;;;;;;;;;;5050878;28;20162;-73
2022/12/13 07:01:26;;;;;;;59.28;26.35;;;;;;;;;;5045874;28;20611;-73
2022/12/13 07:03:55;;;;;;;52.40;24.25;;;;;;;;;;5048994;28;20477;-73
2022/12/13 07:06:23;;;;;;;48.60;22.13;;;;;;;;;;5041343;28;20048;-73
2022/12/13 07:08:51;;;;;;;48.00;22.10;;;;;;;;;;5042453;28;20056;-73
2022/12/13 07:11:20;;;;;;;42.13;20.40;;;;;;;;;;5065742;28;20487;-73
2022/12/13 07:13:47;;;;;;;53.28;22.45;;;;;;;;;;5043057;28;20049;-73
2022/12/13 07:16:15;;;;;;;55.15;24.05;;;;;;;;;;5046654;28;20080;-73
2022/12/13 07:18:44;;;;;;;47.88;22.98;;;;;;;;;;5042019;28;20048;-73
2022/12/13 07:21:12;;;;;;;58.58;25.90;;;;;;;;;;5047351;28;20052;-73
2022/12/13 07:23:40;;;;;;;47.67;24.02;;;;;;;;;;5045935;28;20060;-73
2022/12/13 07:26:08;;;;;;;53.92;24.38;;;;;;;;;;5053423;28;20056;-73
2022/12/13 07:28:36;;;;;;;50.20;23.17;;;;;;;;;;5049015;28;20052;-73
2022/12/13 07:31:03;;;;;;;54.67;24.25;;;;;;;;;;5055651;28;20051;-73
2022/12/13 07:33:31;;;;;;;57.00;24.20;;;;;;;;;;5050224;28;20060;-73
2022/12/13 07:36:03;;;;;;;48.85;24.25;;;;;;;;;;5048573;28;20052;-73
2022/12/13 07:38:30;;;;;;;53.60;23.85;;;;;;;;;;5051702;28;20052;-73
2022/12/13 07:40:58;;;;;;;60.55;25.92;;;;;;;;;;5053295;28;20060;-73
2022/12/13 07:43:25;;;;;;;50.58;23.80;;;;;;;;;;5074071;28;20052;-69
2022/12/13 07:45:52;;;;;;;52.95;23.42;;;;;;;;;;5062139;28;20049;-70
2022/12/13 07:48:20;;;;;;;54.17;22.27;;;;;;;;;;5060235;28;20057;-70
2022/12/13 07:50:48;;;;;;;57.45;25.00;;;;;;;;;;5057777;28;21436;-70
2022/12/13 07:53:16;;;;;;;61.75;25.52;;;;;;;;;;5068381;28;20134;-69
2022/12/13 07:55:43;;;;;;;57.53;22.92;;;;;;;;;;5075788;28;20427;-69
2022/12/13 07:58:12;;;;;;;52.30;21.92;;;;;;;;;;5053360;28;20052;-69
2022/12/13 08:00:40;;;;;;;51.53;21.83;;;;;;;;;;5071898;28;20048;-70
2022/12/13 08:03:07;;;;;;;57.60;24.83;;;;;;;;;;5074467;28;20057;-70
2022/12/13 08:05:35;;;;;;;47.03;21.80;;;;;;;;;;5073856;28;20558;-69
2022/12/13 08:08:02;;;;;;;50.67;23.40;;;;;;;;;;5068317;28;20483;-70
2022/12/13 08:10:31;;;;;;;62.58;24.70;;;;;;;;;;5071246;28;20056;-69
2022/12/13 08:12:59;;;;;;;54.70;22.15;;;;;;;;;;5065110;28;20124;-70
2022/12/13 08:15:26;;;;;;;48.05;22.73;;;;;;;;;;5065126;28;20057;-70
2022/12/13 08:17:55;;;;;;;57.67;22.45;;;;;;;;;;5045803;28;20089;-70
2022/12/13 08:20:23;;;;;;;51.35;22.67;;;;;;;;;;5072680;28;20113;-69
2022/12/13 08:22:54;;;;;;;49.25;23.13;;;;;;;;;;5072064;28;20051;-69
2022/12/13 08:25:22;;;;;;;52.90;20.80;;;;;;;;;;5064497;28;20059;-70
2022/12/13 08:27:50;;;;;;;48.38;21.42;;;;;;;;;;5051760;28;20064;-70
2022/12/13 08:30:17;;;;;;;50.42;22.08;;;;;;;;;;5063950;28;20411;-70
2022/12/13 08:32:45;;;;;;;48.25;20.90;;;;;;;;;;5064260;28;20059;-69
2022/12/13 08:35:12;;;;;;;43.00;21.38;;;;;;;;;;5061664;28;20060;-70
2022/12/13 08:37:39;;;;;;;51.92;22.35;;;;;;;;;;5064848;28;20060;-69
2022/12/13 08:40:07;;;;;;;45.50;21.35;;;;;;;;;;5062658;28;20080;-69
2022/12/13 08:42:34;;;;;;;46.90;21.33;;;;;;;;;;5067100;28;20056;-70
2022/12/13 08:45:03;;;;;;;46.55;19.70;;;;;;;;;;5064803;28;20060;-70
2022/12/13 08:47:30;;;;;;;50.05;20.63;;;;;;;;;;5068507;28;20423;-70
2022/12/13 08:49:59;;;;;;;50.92;20.13;;;;;;;;;;5065037;28;20045;-70
2022/12/13 08:52:26;;;;;;;42.92;17.88;;;;;;;;;;5065976;28;20044;-70
2022/12/13 08:54:53;;;;;;;43.33;18.48;;;;;;;;;;5050149;28;20052;-70
2022/12/13 08:57:21;;;;;;;55.45;20.30;;;;;;;;;;5065704;28;20051;-70
2022/12/13 08:59:48;;;;;;;40.92;19.20;;;;;;;;;;5063131;28;20055;-70
2022/12/13 09:02:17;;;;;;;37.00;17.58;;;;;;;;;;5064611;28;20386;-73
2022/12/13 09:04:44;;;;;;;45.28;19.42;;;;;;;;;;5057098;28;20068;-71
2022/12/13 09:07:11;;;;;;;43.90;19.42;;;;;;;;;;5067989;28;20040;-70
2022/12/13 09:09:40;;;;;;;38.25;18.60;;;;;;;;;;5065898;28;20045;-71
2022/12/13 09:12:08;;;;;;;39.30;18.48;;;;;;;;;;5070084;28;20055;-71
2022/12/13 09:14:35;;;;;;;44.30;18.85;;;;;;;;;;5071427;28;20067;-71
2022/12/13 09:17:02;;;;;;;47.13;18.77;;;;;;;;;;5048042;28;20051;-70
2022/12/13 09:19:31;;;;;;;45.33;18.52;;;;;;;;;;5068348;28;20045;-70
2022/12/13 09:21:58;;;;;;;42.20;19.17;;;;;;;;;;5066984;28;20146;-70
2022/12/13 09:24:27;;;;;;;44.00;18.98;;;;;;;;;;5070944;28;20126;-71
2022/12/13 09:26:54;;;;;;;40.65;18.83;;;;;;;;;;5064018;28;20150;-70
2022/12/13 09:29:21;;;;;;;46.08;20.23;;;;;;;;;;5068861;28;20051;-71
2022/12/13 09:31:48;;;;;;;43.55;19.55;;;;;;;;;;5053512;28;20086;-71
2022/12/13 09:34:16;;;;;;;44.55;18.95;;;;;;;;;;5075048;28;20052;-71
2022/12/13 09:36:44;;;;;;;42.65;19.15;;;;;;;;;;5064000;28;20055;-71
2022/12/13 09:39:12;;;;;;;41.75;18.52;;;;;;;;;;5067560;28;20547;-71
2022/12/13 09:41:41;;;;;;;41.60;20.20;;;;;;;;;;5049473;28;20045;-71
2022/12/13 09:44:13;;;;;;;44.58;20.40;;;;;;;;;;5067076;28;20052;-71
2022/12/13 09:46:42;;;;;;;45.53;19.42;;;;;;;;;;5064559;28;20040;-71
2022/12/13 09:49:13;;;;;;;43.60;19.70;;;;;;;;;;5067677;28;20048;-71
2022/12/13 09:51:40;;;;;;;45.13;19.10;;;;;;;;;;5063430;28;20045;-71
2022/12/13 09:54:12;;;;;;;40.22;18.50;;;;;;;;;;5064586;28;20049;-72
2022/12/13 09:56:40;;;;;;;36.05;17.63;;;;;;;;;;5067003;28;20089;-72
2022/12/13 09:59:13;;;;;;;40.90;17.55;;;;;;;;;;5068890;28;20052;-71
2022/12/13 10:01:41;;;;;;;36.55;16.58;;;;;;;;;;5054609;28;20059;-72
2022/12/13 10:04:10;;;;;;;35.22;16.33;;;;;;;;;;5048922;28;20803;-71
2022/12/13 10:06:37;;;;;;;34.53;16.77;;;;;;;;;;5065663;28;20445;-71
2022/12/13 10:09:07;;;;;;;31.20;16.05;;;;;;;;;;5064667;28;20049;-71
2022/12/13 10:11:37;;;;;;;31.27;15.13;;;;;;;;;;5066802;28;20120;-71
2022/12/13 10:14:05;;;;;;;33.55;16.52;;;;;;;;;;5045558;28;20135;-71
2022/12/13 10:16:42;;;;;;;33.45;16.40;;;;;;;;;;5065168;28;20068;-71
2022/12/13 10:19:15;;;;;;;33.10;15.70;;;;;;;;;;5046028;28;20185;-71
2022/12/13 10:21:43;;;;;;;27.05;15.00;;;;;;;;;;5063868;28;20048;-71
2022/12/13 10:24:14;;;;;;;29.08;14.65;;;;;;;;;;5068390;28;20056;-71
2022/12/13 10:26:43;;;;;;;27.65;14.25;;;;;;;;;;5063734;28;20111;-71
2022/12/13 10:29:11;;;;;;;26.08;13.68;;;;;;;;;;5064291;28;20530;-71
2022/12/13 10:31:40;;;;;;;31.48;14.65;;;;;;;;;;5064060;28;20116;-71
2022/12/13 10:34:16;;;;;;;29.00;14.80;;;;;;;;;;5066307;28;20040;-72
2022/12/13 10:36:44;;;;;;;31.15;15.38;;;;;;;;;;5064903;28;20048;-71
2022/12/13 10:39:16;;;;;;;34.38;14.85;;;;;;;;;;5060480;28;20056;-71
2022/12/13 10:41:46;;;;;;;30.75;14.85;;;;;;;;;;5048955;28;20776;-71
2022/12/13 10:44:21;;;;;;;32.90;15.23;;;;;;;;;;5062491;28;20606;-71
2022/12/13 10:46:50;;;;;;;28.45;14.07;;;;;;;;;;5059330;28;20076;-70
2022/12/13 10:49:18;;;;;;;26.38;14.15;;;;;;;;;;5064241;28;20127;-70
2022/12/13 10:51:45;;;;;;;28.38;14.35;;;;;;;;;;5063544;28;20056;-71
2022/12/13 10:54:17;;;;;;;27.73;14.25;;;;;;;;;;5064944;28;20045;-71
2022/12/13 10:56:47;;;;;;;28.60;14.45;;;;;;;;;;5061101;28;20042;-71
2022/12/13 10:59:25;;;;;;;31.15;14.82;;;;;;;;;;5062389;28;20053;-71
2022/12/13 11:01:53;;;;;;;25.80;14.07;;;;;;;;;;5068528;28;20055;-71
2022/12/13 11:04:26;;;;;;;27.25;14.60;;;;;;;;;;5049227;28;20048;-71
2022/12/13 11:06:54;;;;;;;31.77;15.20;;;;;;;;;;5064315;28;20044;-71
2022/12/13 11:09:29;;;;;;;35.08;16.33;;;;;;;;;;5040487;28;20048;-71
2022/12/13 11:11:59;;;;;;;33.55;16.13;;;;;;;;;;5063865;28;20052;-71
2022/12/13 11:14:27;;;;;;;29.90;16.05;;;;;;;;;;5046971;28;20059;-71
2022/12/13 11:16:57;;;;;;;31.90;16.73;;;;;;;;;;5066025;28;20598;-71
2022/12/13 11:19:26;;;;;;;34.22;17.70;;;;;;;;;;5063755;28;20048;-72
2022/12/13 11:21:54;;;;;;;35.35;16.85;;;;;;;;;;5063250;28;20048;-71
2022/12/13 11:24:22;;;;;;;30.40;16.63;;;;;;;;;;5072058;28;20121;-71
2022/12/13 11:26:52;;;;;;;31.25;15.93;;;;;;;;;;5063964;28;20056;-71
2022/12/13 11:29:31;;;;;;;33.72;16.73;;;;;;;;;;5061076;28;20059;-71
2022/12/13 11:32:02;;;;;;;30.83;17.45;;;;;;;;;;5063496;28;20059;-71
2022/12/13 11:34:35;;;;;;;31.48;15.60;;;;;;;;;;5051381;28;20060;-71
2022/12/13 11:37:09;;;;;;;37.03;17.55;;;;;;;;;;5062367;28;20528;-71
2022/12/13 11:39:37;;;;;;;36.75;18.50;;;;;;;;;;5048596;28;20510;-71
2022/12/13 11:42:09;;;;;;;36.80;18.65;;;;;;;;;;5062225;28;20075;-71
2022/12/13 11:44:43;;;;;;;34.60;18.20;;;;;;;;;;5066483;28;20048;-71
2022/12/13 11:47:14;;;;;;;39.42;19.42;;;;;;;;;;5063819;28;20044;-71
2022/12/13 11:49:42;;;;;;;41.17;20.25;;;;;;;;;;5067695;28;20048;-71
2022/12/13 11:52:13;;;;;;;42.30;19.80;;;;;;;;;;5069840;28;20054;-71
2022/12/13 11:54:45;;;;;;;42.10;20.20;;;;;;;;;;5064629;28;20057;-71
2022/12/13 11:57:17;;;;;;;41.10;19.30;;;;;;;;;;5060588;28;20049;-71
2022/12/13 11:59:49;;;;;;;36.70;18.70;;;;;;;;;;5056466;28;20045;-70
2022/12/13 12:02:20;;;;;;;42.67;19.02;;;;;;;;;;5061982;28;20283;-70
2022/12/13 12:04:49;;;;;;;41.58;18.90;;;;;;;;;;5066944;28;20048;-71
2022/12/13 12:07:17;;;;;;;41.63;20.52;;;;;;;;;;5067890;28;20052;-71
2022/12/13 12:09:49;;;;;;;40.75;19.88;;;;;;;;;;5067526;28;20491;-72
2022/12/13 12:12:20;;;;;;;36.75;19.25;;;;;;;;;;5063614;28;20070;-71
2022/12/13 12:14:52;;;;;;;41.85;18.92;;;;;;;;;;5047796;28;20524;-71
2022/12/13 12:17:23;;;;;;;42.08;19.45;;;;;;;;;;5061451;28;20052;-71
2022/12/13 12:19:53;;;;;;;39.15;19.80;;;;;;;;;;5062307;28;20490;-70
2022/12/13 12:22:25;;;;;;;39.67;18.88;;;;;;;;;;5067407;28;20055;-70
2022/12/13 12:25:08;;;;;;;40.90;19.83;;;;;;;;;;5066140;28;20059;-70
2022/12/13 12:27:42;;;;;;;38.47;18.90;;;;;;;;;;5065940;28;20072;-70
2022/12/13 12:30:09;;;;;;;;;;;;;;;;;;5073098;28;20704;-70
2022/12/13 12:32:42;;;;;;;34.50;17.40;;;;;;;;;;5075826;28;20212;-71
2022/12/13 12:35:17;;;;;;;38.05;17.02;;;;;;;;;;5062710;28;20037;-70
2022/12/13 12:37:49;;;;;;;38.20;17.63;;;;;;;;;;5064315;28;20492;-70
2022/12/13 12:40:36;;;;;;;29.85;16.38;;;;;;;;;;5060809;28;20041;-73
2022/12/13 12:43:07;;;;;;;34.55;16.42;;;;;;;;;;5043982;28;20056;-73
2022/12/13 12:45:41;;;;;;;37.30;18.73;;;;;;;;;;5056384;28;20053;-73
2022/12/13 12:48:16;;;;;;;34.65;16.75;;;;;;;;;;5047528;28;20049;-73
2022/12/13 12:50:49;;;;;;;36.65;16.85;;;;;;;;;;5040986;28;20067;-73
2022/12/13 12:53:26;;;;;;;32.67;15.83;;;;;;;;;;5044502;28;20057;-73
2022/12/13 12:55:59;;;;;;;35.08;16.40;;;;;;;;;;5038615;28;20045;-73
2022/12/13 12:58:29;;;;;;;32.75;16.63;;;;;;;;;;5040724;28;20136;-73
2022/12/13 13:01:02;;;;;;;35.05;16.58;;;;;;;;;;5040920;28;20052;-73
2022/12/13 13:03:34;;;;;;;36.45;16.48;;;;;;;;;;5040948;28;20056;-73
2022/12/13 13:06:03;;;;;;;33.25;16.27;;;;;;;;;;5036737;28;20048;-73
2022/12/13 13:08:33;;;;;;;35.03;16.75;;;;;;;;;;5042953;28;20059;-73
2022/12/13 13:11:01;;;;;;;37.30;16.88;;;;;;;;;;5048899;28;20052;-73
2022/12/13 13:13:36;;;;;;;36.78;17.45;;;;;;;;;;5060338;28;20521;-72
2022/12/13 13:16:04;;;;;;;32.20;15.95;;;;;;;;;;5055399;28;20072;-73
2022/12/13 13:18:49;;;;;;;31.30;15.23;;;;;;;;;;5038573;28;20492;-73
2022/12/13 13:21:27;;;;;;;30.23;15.07;;;;;;;;;;5035967;28;20147;-73
2022/12/13 13:24:06;;;;;;;30.98;15.13;;;;;;;;;;5043499;28;20685;-74
2022/12/13 13:26:34;;;;;;;29.88;13.98;;;;;;;;;;5040694;28;20080;-74
2022/12/13 13:29:16;;;;;;;29.60;14.80;;;;;;;;;;5045043;28;20231;-74
2022/12/13 13:31:55;;;;;;;31.73;15.43;;;;;;;;;;5044415;28;20056;-73
2022/12/13 13:34:25;;;;;;;32.42;15.55;;;;;;;;;;5041957;28;20056;-74
2022/12/13 13:36:54;;;;;;;31.00;15.85;;;;;;;;;;5044193;28;20058;-73
2022/12/13 13:39:38;;;;;;;30.75;15.45;;;;;;;;;;5064584;28;20587;-73
2022/12/13 13:42:23;;;;;;;31.95;15.75;;;;;;;;;;5044913;28;20136;-74
2022/12/13 13:44:54;;;;;;;33.33;16.35;;;;;;;;;;5045043;28;20056;-74
2022/12/13 13:47:39;;;;;;;34.10;15.35;;;;;;;;;;5039725;28;20057;-74
2022/12/13 13:50:36;;;;;;;32.13;15.82;;;;;;;;;;5048064;28;20461;-74
2022/12/13 13:53:12;;;;;;;30.45;14.73;;;;;;;;;;5049141;28;20131;-73
2022/12/13 13:55:48;;;;;;;30.67;15.32;;;;;;;;;;5049895;28;20058;-72
2022/12/13 13:58:33;;;;;;;36.53;16.65;;;;;;;;;;5052817;28;20071;-73
2022/12/13 14:01:12;;;;;;;38.38;18.85;;;;;;;;;;5050618;28;20518;-73
2022/12/13 14:03:57;;;;;;;31.92;16.33;;;;;;;;;;5047219;28;20067;-73
2022/12/13 14:06:45;;;;;;;34.38;16.55;;;;;;;;;;5059580;28;20040;-73
2022/12/13 14:09:19;;;;;;;33.30;17.70;;;;;;;;;;5042333;28;20048;-74
2022/12/13 14:12:07;;;;;;;33.85;16.85;;;;;;;;;;5074879;28;20105;-74
2022/12/13 14:14:56;;;;;;;38.67;17.27;;;;;;;;;;5008691;28;20087;-74
2022/12/13 14:17:50;;;;;;;32.85;16.10;;;;;;;;;;5028302;28;20391;-74
2022/12/13 14:20:30;;;;;;;35.80;16.67;;;;;;;;;;5034645;28;20053;-74
2022/12/13 14:23:02;;;;;;;32.80;16.33;;;;;;;;;;5044600;28;20495;-72
2022/12/13 14:25:41;;;;;;;33.33;16.23;;;;;;;;;;5066988;28;21168;-74
2022/12/13 14:28:11;;;;;;;30.90;15.93;;;;;;;;;;5044551;28;20075;-74
2022/12/13 14:30:42;;;;;;;39.78;20.05;;;;;;;;;;5047195;28;20064;-74
2022/12/13 14:33:14;;;;;;;30.85;15.95;;;;;;;;;;5049062;28;20055;-74
2022/12/13 14:35:50;;;;;;;32.58;16.08;;;;;;;;;;5062129;28;20049;-74
2022/12/13 14:38:22;;;;;;;30.83;16.23;;;;;;;;;;5038276;28;20049;-74
2022/12/13 14:40:50;;;;;;;29.92;14.55;;;;;;;;;;5053425;28;20048;-74